createdAt,value
2018-11-04T00:01:59.462Z,32.63
2018-11-04T00:04:28.689Z,32.63
2018-11-04T00:06:57.991Z,35.47
2018-11-04T00:09:27.249Z,33.53
2018-11-04T00:11:56.456Z,34.70
2018-11-04T00:14:25.711Z,32.90
2018-11-04T00:16:55.143Z,34.53
2018-11-04T00:19:24.363Z,34.23
2018-11-04T00:21:53.591Z,34.50
2018-11-04T00:24:22.862Z,34.40
2018-11-04T00:26:52.257Z,35.07
2018-11-04T00:29:21.559Z,34.73
2018-11-04T00:31:50.726Z,35.63
2018-11-04T00:34:20.160Z,34.27
2018-11-04T00:36:49.575Z,33.87
2018-11-04T00:39:18.886Z,35.40
2018-11-04T00:41:48.324Z,34.47
2018-11-04T00:44:17.517Z,33.23
2018-11-04T00:46:46.823Z,35.53
2018-11-04T00:49:16.058Z,35.57
2018-11-04T00:51:45.427Z,36.57
2018-11-04T00:54:14.878Z,34.53
2018-11-04T00:56:44.243Z,33.90
2018-11-04T00:59:13.427Z,36.37
2018-11-04T01:01:42.827Z,37.23
2018-11-04T01:04:12.199Z,37.50
2018-11-04T01:06:41.543Z,35.93
2018-11-04T01:09:11.448Z,35.67
2018-11-04T01:11:40.767Z,36.60
2018-11-04T01:14:10.130Z,38.43
2018-11-04T01:16:39.537Z,38.67
2018-11-04T01:19:08.779Z,38.63
2018-11-04T01:21:38.214Z,39.57
2018-11-04T01:24:07.470Z,40.60
2018-11-04T01:26:36.747Z,37.97
2018-11-04T01:29:06.500Z,40.17
2018-11-04T01:31:36.148Z,41.90
2018-11-04T01:34:05.589Z,39.87
2018-11-04T01:36:34.857Z,38.47
2018-11-04T01:39:05.107Z,37.93
2018-11-04T01:41:34.446Z,38.33
2018-11-04T01:44:03.602Z,38.27
2018-11-04T01:46:32.797Z,39.93
2018-11-04T01:49:02.058Z,39.57
2018-11-04T01:51:31.401Z,37.40
2018-11-04T01:54:00.791Z,41.30
2018-11-04T01:56:29.994Z,41.07
2018-11-04T01:58:59.238Z,38.53
2018-11-04T02:01:28.490Z,39.43
2018-11-04T02:03:57.809Z,41.53
2018-11-04T02:06:27.411Z,39.73
2018-11-04T02:08:56.773Z,42.93
2018-11-04T02:11:26.223Z,39.13
2018-11-04T02:13:55.650Z,40.47
2018-11-04T02:16:24.868Z,40.90
2018-11-04T02:18:54.072Z,42.17
2018-11-04T02:21:23.298Z,41.83
2018-11-04T02:23:52.555Z,40.10
2018-11-04T02:26:21.834Z,41.77
2018-11-04T02:28:51.157Z,41.80
2018-11-04T02:31:20.474Z,43.67
2018-11-04T02:33:49.787Z,42.63
2018-11-04T02:36:19.143Z,42.30
2018-11-04T02:38:48.395Z,42.87
2018-11-04T02:41:17.757Z,42.30
2018-11-04T02:43:46.987Z,41.67
2018-11-04T02:46:16.335Z,41.13
2018-11-04T02:48:45.599Z,40.13
2018-11-04T02:51:14.910Z,41.83
2018-11-04T02:53:44.215Z,42.67
2018-11-04T02:56:13.415Z,42.63
2018-11-04T02:58:42.677Z,40.00
2018-11-04T03:01:12.052Z,40.60
2018-11-04T03:03:42.390Z,43.37
2018-11-04T03:06:11.699Z,42.00
2018-11-04T03:08:40.995Z,41.63
2018-11-04T03:11:10.275Z,40.60
2018-11-04T03:13:39.631Z,42.77
2018-11-04T03:16:09.795Z,42.60
2018-11-04T03:18:41.436Z,44.33
2018-11-04T03:21:10.653Z,42.57
2018-11-04T03:23:39.894Z,42.77
2018-11-04T03:26:09.335Z,43.37
2018-11-04T03:28:38.697Z,42.73
2018-11-04T03:31:08.034Z,40.63
2018-11-04T03:33:37.303Z,42.33
2018-11-04T03:36:06.807Z,42.33
2018-11-04T03:38:36.118Z,42.13
2018-11-04T03:41:05.851Z,41.93
2018-11-04T03:43:35.131Z,43.03
2018-11-04T03:46:04.662Z,42.33
2018-11-04T03:48:33.938Z,41.63
2018-11-04T03:51:03.322Z,43.50
2018-11-04T03:53:32.598Z,40.20
2018-11-04T03:56:01.917Z,38.33
2018-11-04T03:58:31.247Z,42.43
2018-11-04T04:01:00.626Z,41.77
2018-11-04T04:03:30.006Z,39.77
2018-11-04T04:05:59.283Z,39.70
2018-11-04T04:08:29.229Z,45.53
2018-11-04T04:10:58.445Z,40.50
2018-11-04T04:13:27.675Z,43.50
2018-11-04T04:15:57.085Z,41.50
2018-11-04T04:18:26.327Z,42.30
2018-11-04T04:21:10.847Z,44.00
2018-11-04T04:23:41.372Z,41.87
2018-11-04T04:26:11.682Z,39.93
2018-11-04T04:28:41.503Z,41.53
2018-11-04T04:31:10.798Z,39.50
2018-11-04T04:33:40.102Z,42.23
2018-11-04T04:36:09.363Z,40.00
2018-11-04T04:38:38.749Z,39.27
2018-11-04T04:41:08.290Z,41.40
2018-11-04T04:43:37.544Z,42.47
2018-11-04T04:46:07.002Z,39.53
2018-11-04T04:48:36.287Z,39.67
2018-11-04T04:51:05.735Z,37.53
2018-11-04T04:53:35.102Z,40.53
2018-11-04T04:56:04.374Z,41.07
2018-11-04T04:58:33.686Z,38.70
2018-11-04T05:01:03.108Z,39.70
2018-11-04T05:03:32.430Z,38.87
2018-11-04T05:06:01.710Z,37.27
2018-11-04T05:08:30.910Z,38.93
2018-11-04T05:11:00.258Z,39.67
2018-11-04T05:13:29.493Z,35.97
2018-11-04T05:15:58.943Z,38.33
2018-11-04T05:18:28.246Z,38.23
2018-11-04T05:20:57.485Z,40.37
2018-11-04T05:23:26.830Z,38.93
2018-11-04T05:25:56.245Z,39.20
2018-11-04T05:28:26.051Z,39.00
2018-11-04T05:30:55.327Z,39.10
2018-11-04T05:33:24.645Z,41.30
2018-11-04T05:35:53.972Z,39.30
2018-11-04T05:38:23.378Z,38.33
2018-11-04T05:40:52.612Z,37.53
2018-11-04T05:43:21.888Z,39.83
2018-11-04T05:45:51.807Z,37.17
2018-11-04T05:48:21.134Z,39.13
2018-11-04T05:50:50.538Z,37.70
2018-11-04T05:53:19.870Z,40.90
2018-11-04T05:55:49.035Z,38.80
2018-11-04T05:58:18.227Z,40.63
2018-11-04T06:00:47.475Z,40.27
2018-11-04T06:03:16.750Z,40.80
2018-11-04T06:05:46.110Z,42.57
2018-11-04T06:08:15.427Z,41.23
2018-11-04T06:10:44.738Z,43.03
2018-11-04T06:13:14.062Z,40.77
2018-11-04T06:15:43.340Z,42.43
2018-11-04T06:18:12.718Z,41.20
2018-11-04T06:20:41.917Z,41.83
2018-11-04T06:23:11.135Z,40.07
2018-11-04T06:25:40.422Z,40.87
2018-11-04T06:28:09.758Z,40.47
2018-11-04T06:30:39.083Z,40.53
2018-11-04T06:33:08.444Z,41.27
2018-11-04T06:35:37.724Z,41.63
2018-11-04T06:38:07.286Z,38.50
2018-11-04T06:40:36.542Z,40.47
2018-11-04T06:43:05.863Z,42.33
2018-11-04T06:45:35.154Z,41.13
2018-11-04T06:48:04.539Z,39.83
2018-11-04T06:50:33.939Z,39.90
2018-11-04T06:53:03.170Z,42.53
2018-11-04T06:55:32.387Z,41.77
2018-11-04T06:58:01.635Z,39.87
2018-11-04T07:00:30.874Z,41.47
2018-11-04T07:03:00.275Z,43.20
2018-11-04T07:05:29.632Z,40.27
2018-11-04T07:07:58.955Z,38.97
2018-11-04T07:10:28.222Z,39.37
2018-11-04T07:12:57.562Z,37.43
2018-11-04T07:15:26.936Z,38.93
2018-11-04T07:17:56.318Z,38.23
2018-11-04T07:20:25.702Z,39.97
2018-11-04T07:22:55.082Z,38.80
2018-11-04T07:25:24.483Z,40.27
2018-11-04T07:27:53.812Z,38.60
2018-11-04T07:30:23.103Z,37.87
2018-11-04T07:32:52.582Z,39.27
2018-11-04T07:35:22.778Z,38.00
2018-11-04T07:37:52.096Z,38.80
2018-11-04T07:40:21.357Z,38.57
2018-11-04T07:42:50.638Z,38.07
2018-11-04T07:45:19.998Z,38.27
2018-11-04T07:47:49.328Z,38.03
2018-11-04T07:50:18.600Z,38.27
2018-11-04T07:52:48.660Z,37.40
2018-11-04T07:55:18.064Z,38.50
2018-11-04T07:57:47.418Z,37.77
2018-11-04T08:00:17.058Z,37.23
2018-11-04T08:02:46.442Z,36.50
2018-11-04T08:05:15.856Z,38.13
2018-11-04T08:07:45.043Z,37.53
2018-11-04T08:10:14.990Z,37.57
2018-11-04T08:12:44.576Z,39.27
2018-11-04T08:15:13.855Z,40.10
2018-11-04T08:17:43.094Z,38.93
2018-11-04T08:20:12.269Z,39.97
2018-11-04T08:22:41.891Z,38.97
2018-11-04T08:25:11.163Z,38.93
2018-11-04T08:27:40.537Z,40.27
2018-11-04T08:30:10.040Z,42.40
2018-11-04T08:32:39.464Z,39.47
2018-11-04T08:35:08.869Z,41.03
2018-11-04T08:37:38.222Z,41.63
2018-11-04T08:40:08.262Z,41.13
2018-11-04T08:42:37.282Z,41.63
2018-11-04T08:45:07.918Z,41.17
2018-11-04T08:47:37.118Z,37.60
2018-11-04T08:50:07.955Z,39.63
2018-11-04T08:52:37.220Z,37.53
2018-11-04T08:55:07.854Z,36.30
2018-11-04T08:57:37.148Z,38.27
2018-11-04T09:00:08.249Z,38.20
2018-11-04T09:02:37.662Z,38.07
2018-11-04T09:05:07.676Z,38.37
2018-11-04T09:07:36.960Z,38.50
2018-11-04T09:10:13.195Z,35.87
2018-11-04T09:12:43.295Z,38.80
2018-11-04T09:15:12.947Z,37.30
2018-11-04T09:17:42.414Z,36.80
2018-11-04T09:20:13.056Z,38.73
2018-11-04T09:22:43.178Z,38.67
2018-11-04T09:25:12.951Z,37.27
2018-11-04T09:27:42.314Z,37.93
2018-11-04T09:30:13.761Z,37.37
2018-11-04T09:32:43.081Z,36.73
2018-11-04T09:35:12.753Z,37.87
2018-11-04T09:37:42.111Z,35.07
2018-11-04T09:40:12.605Z,35.10
2018-11-04T09:42:42.394Z,36.00
2018-11-04T09:45:12.110Z,36.57
2018-11-04T09:47:41.345Z,34.70
2018-11-04T09:50:12.147Z,36.53
2018-11-04T09:52:41.607Z,36.07
2018-11-04T09:55:11.885Z,34.03
2018-11-04T09:57:41.279Z,36.97
2018-11-04T10:00:12.146Z,34.53
2018-11-04T10:02:41.809Z,33.03
2018-11-04T10:05:11.631Z,33.83
2018-11-04T10:07:41.074Z,35.13
2018-11-04T10:10:12.399Z,34.03
2018-11-04T10:12:42.949Z,34.70
2018-11-04T10:15:12.174Z,34.37
2018-11-04T10:17:42.042Z,34.90
2018-11-04T10:20:12.506Z,33.43
2018-11-04T10:22:42.007Z,32.23
2018-11-04T10:25:12.490Z,33.30
2018-11-04T10:27:42.401Z,32.77
2018-11-04T10:30:15.658Z,33.63
2018-11-04T10:32:45.210Z,35.37
2018-11-04T10:35:14.517Z,35.83
2018-11-04T10:37:44.132Z,34.07
2018-11-04T10:40:13.766Z,34.43
2018-11-04T10:42:42.999Z,33.70
2018-11-04T10:45:12.739Z,36.57
2018-11-04T10:47:42.050Z,36.60
2018-11-04T10:50:12.495Z,34.70
2018-11-04T10:52:41.847Z,36.47
2018-11-04T10:55:11.706Z,35.53
2018-11-04T10:57:41.177Z,36.10
2018-11-04T11:00:16.171Z,35.53
2018-11-04T11:02:46.045Z,37.53
2018-11-04T11:05:15.454Z,38.27
2018-11-04T11:07:45.323Z,38.00
2018-11-04T11:10:14.641Z,36.73
2018-11-04T11:12:43.875Z,38.33
2018-11-04T11:15:13.082Z,37.07
2018-11-04T11:17:42.422Z,39.83
2018-11-04T11:20:12.673Z,40.47
2018-11-04T11:22:42.520Z,41.57
2018-11-04T11:25:12.070Z,38.00
2018-11-04T11:27:41.321Z,39.47
2018-11-04T11:30:10.781Z,39.77
2018-11-04T11:32:39.983Z,42.63
2018-11-04T11:35:10.311Z,41.43
2018-11-04T11:37:39.669Z,42.40
2018-11-04T11:40:09.785Z,42.17
2018-11-04T11:42:39.183Z,40.97
2018-11-04T11:45:09.194Z,44.60
2018-11-04T11:47:38.518Z,43.60
2018-11-04T11:50:08.311Z,44.77
2018-11-04T11:52:37.755Z,41.10
2018-11-04T11:55:07.383Z,42.50
2018-11-04T11:57:36.686Z,41.93
2018-11-04T12:00:08.117Z,44.33
2018-11-04T12:02:37.807Z,44.37
2018-11-04T12:05:08.088Z,43.03
2018-11-04T12:07:37.460Z,45.00
2018-11-04T12:10:08.716Z,44.97
2018-11-04T12:12:38.171Z,44.37
2018-11-04T12:15:09.022Z,43.80
2018-11-04T12:17:38.402Z,45.47
2018-11-04T12:20:09.632Z,46.27
2018-11-04T12:22:39.074Z,44.73
2018-11-04T12:25:10.161Z,46.17
2018-11-04T12:27:39.458Z,44.33
2018-11-04T12:30:10.847Z,45.83
2018-11-04T12:32:40.224Z,44.83
2018-11-04T12:35:10.921Z,44.07
2018-11-04T12:37:40.417Z,45.20
2018-11-04T12:40:11.527Z,46.60
2018-11-04T12:42:40.877Z,47.37
2018-11-04T12:45:11.595Z,46.33
2018-11-04T12:47:40.939Z,46.47
2018-11-04T12:50:11.435Z,46.43
2018-11-04T12:52:40.878Z,48.43
2018-11-04T12:55:10.445Z,47.87
2018-11-04T12:57:39.774Z,48.60
2018-11-04T13:00:12.727Z,49.57
2018-11-04T13:02:43.520Z,49.63
2018-11-04T13:05:12.970Z,49.60
2018-11-04T13:07:43.431Z,49.90
2018-11-04T13:10:14.240Z,51.83
2018-11-04T13:12:43.536Z,49.83
2018-11-04T13:15:14.071Z,50.03
2018-11-04T13:17:43.948Z,48.97
2018-11-04T13:20:13.475Z,51.60
2018-11-04T13:22:42.843Z,50.40
2018-11-04T13:25:12.226Z,52.67
2018-11-04T13:27:41.574Z,51.37
2018-11-04T13:30:12.366Z,50.80
2018-11-04T13:32:41.707Z,52.43
2018-11-04T13:35:11.263Z,53.20
2018-11-04T13:37:41.682Z,51.27
2018-11-04T13:40:11.975Z,51.33
2018-11-04T13:42:41.762Z,50.60
2018-11-04T13:45:11.591Z,50.60
2018-11-04T13:47:40.878Z,51.93
2018-11-04T13:50:11.970Z,52.67
2018-11-04T13:52:41.108Z,53.47
2018-11-04T13:55:10.259Z,53.57
2018-11-04T13:57:40.109Z,55.03
2018-11-04T14:00:13.878Z,52.70
2018-11-04T14:02:44.150Z,54.50
2018-11-04T14:05:13.407Z,56.17
2018-11-04T14:07:42.827Z,58.23
2018-11-04T14:10:13.546Z,57.50
2018-11-04T14:12:43.541Z,55.97
2018-11-04T14:15:13.550Z,53.47
2018-11-04T14:17:42.949Z,53.03
2018-11-04T14:20:13.077Z,53.83
2018-11-04T14:22:42.377Z,57.50
2018-11-04T14:25:12.539Z,57.63
2018-11-04T14:27:41.942Z,54.73
2018-11-04T14:30:13.471Z,54.23
2018-11-04T14:32:43.898Z,52.70
2018-11-04T14:35:13.517Z,55.97
2018-11-04T14:37:43.539Z,54.57
2018-11-04T14:40:14.264Z,53.67
2018-11-04T14:42:44.310Z,51.17
2018-11-04T14:45:13.671Z,52.90
2018-11-04T14:47:42.938Z,51.97
2018-11-04T14:50:18.188Z,52.03
2018-11-04T14:52:48.033Z,53.17
2018-11-04T14:55:17.401Z,55.23
2018-11-04T14:57:46.644Z,54.20
2018-11-04T15:00:16.864Z,56.30
2018-11-04T15:02:46.152Z,52.67
2018-11-04T15:05:15.417Z,54.23
2018-11-04T15:07:44.635Z,54.63
2018-11-04T15:10:15.562Z,54.77
2018-11-04T15:12:45.059Z,55.33
2018-11-04T15:15:15.914Z,54.10
2018-11-04T15:17:45.159Z,54.87
2018-11-04T15:20:14.411Z,57.37
2018-11-04T15:22:51.448Z,55.63
2018-11-04T15:25:21.674Z,58.07
2018-11-04T15:27:51.015Z,57.17
2018-11-04T15:30:20.353Z,55.83
2018-11-04T15:32:49.743Z,53.97
2018-11-04T15:35:19.162Z,58.20
2018-11-04T15:37:48.532Z,59.20
2018-11-04T15:40:18.287Z,58.57
2018-11-04T15:42:47.500Z,62.93
2018-11-04T15:45:17.303Z,64.77
2018-11-04T15:47:46.662Z,62.77
2018-11-04T15:50:17.449Z,59.13
2018-11-04T15:52:47.304Z,60.73
2018-11-04T15:55:16.688Z,60.87
2018-11-04T15:57:45.990Z,60.17
2018-11-04T16:00:15.921Z,57.17
2018-11-04T16:02:45.211Z,59.50
2018-11-04T16:05:15.054Z,59.23
2018-11-04T16:07:44.276Z,57.37
2018-11-04T16:10:13.829Z,57.87
2018-11-04T16:12:43.131Z,60.57
2018-11-04T16:15:14.122Z,62.27
2018-11-04T16:17:44.016Z,56.43
2018-11-04T16:20:14.573Z,59.70
2018-11-04T16:22:45.101Z,59.10
2018-11-04T16:25:14.826Z,60.60
2018-11-04T16:27:44.346Z,56.33
2018-11-04T16:30:14.739Z,56.27
2018-11-04T16:32:44.233Z,57.83
2018-11-04T16:35:14.266Z,57.30
2018-11-04T16:37:44.501Z,57.73
2018-11-04T16:40:13.839Z,56.80
2018-11-04T16:42:43.621Z,55.03
2018-11-04T16:45:14.734Z,56.90
2018-11-04T16:47:44.030Z,57.87
2018-11-04T16:50:14.269Z,58.03
2018-11-04T16:52:44.344Z,57.80
2018-11-04T16:55:14.054Z,55.60
2018-11-04T16:57:43.774Z,60.63
2018-11-04T17:00:13.227Z,58.57
2018-11-04T17:02:42.449Z,57.93
2018-11-04T17:05:12.518Z,57.20
2018-11-04T17:07:42.099Z,55.47
2018-11-04T17:10:11.488Z,53.77
2018-11-04T17:12:40.849Z,58.27
2018-11-04T17:15:11.927Z,57.23
2018-11-04T17:17:41.676Z,55.43
2018-11-04T17:20:14.040Z,53.60
2018-11-04T17:22:43.924Z,59.27
2018-11-04T17:25:13.329Z,57.73
2018-11-04T17:27:42.964Z,57.33
2018-11-04T17:30:14.336Z,57.40
2018-11-04T17:32:43.886Z,58.50
2018-11-04T17:35:14.317Z,55.73
2018-11-04T17:37:43.866Z,57.87
2018-11-04T17:40:14.020Z,53.67
2018-11-04T17:42:43.352Z,52.87
2018-11-04T17:45:13.798Z,50.97
2018-11-04T17:47:43.123Z,54.93
2018-11-04T17:50:14.665Z,51.70
2018-11-04T17:52:44.274Z,49.23
2018-11-04T17:55:13.593Z,48.13
2018-11-04T17:57:42.938Z,48.30
2018-11-04T18:00:13.506Z,48.17
2018-11-04T18:02:43.322Z,46.90
2018-11-04T18:05:13.177Z,47.53
2018-11-04T18:07:43.261Z,46.30
2018-11-04T18:10:13.518Z,44.43
2018-11-04T18:12:42.838Z,47.17
2018-11-04T18:15:12.949Z,46.03
2018-11-04T18:17:42.246Z,44.27
2018-11-04T18:20:12.151Z,44.97
2018-11-04T18:22:41.491Z,46.03
2018-11-04T18:25:11.813Z,45.43
2018-11-04T18:27:41.051Z,43.97
2018-11-04T18:30:13.797Z,43.83
2018-11-04T18:32:43.424Z,44.20
2018-11-04T18:35:12.870Z,44.07
2018-11-04T18:37:42.319Z,45.27
2018-11-04T18:40:13.507Z,43.87
2018-11-04T18:42:43.334Z,42.77
2018-11-04T18:45:13.721Z,42.73
2018-11-04T18:47:43.303Z,42.00
2018-11-04T18:50:14.039Z,41.97
2018-11-04T18:52:43.512Z,41.80
2018-11-04T18:55:13.265Z,40.23
2018-11-04T18:57:43.371Z,41.20
2018-11-04T19:00:17.050Z,42.47
2018-11-04T19:02:48.183Z,41.27
2018-11-04T19:05:17.428Z,41.47
2018-11-04T19:07:47.071Z,41.50
2018-11-04T19:10:17.758Z,40.97
2018-11-04T19:12:47.015Z,40.63
2018-11-04T19:15:16.339Z,42.43
2018-11-04T19:17:45.534Z,42.03
2018-11-04T19:20:15.618Z,42.37
2018-11-04T19:22:45.042Z,41.87
2018-11-04T19:25:15.368Z,41.33
2018-11-04T19:27:44.675Z,41.67
2018-11-04T19:30:15.396Z,42.13
2018-11-04T19:32:45.119Z,41.23
2018-11-04T19:35:14.997Z,40.83
2018-11-04T19:37:44.224Z,40.13
2018-11-04T19:40:14.627Z,41.53
2018-11-04T19:42:44.098Z,39.87
2018-11-04T19:45:13.265Z,39.23
2018-11-04T19:47:42.578Z,41.23
2018-11-04T19:50:13.014Z,41.87
2018-11-04T19:52:42.710Z,40.33
2018-11-04T19:55:12.612Z,41.40
2018-11-04T19:57:41.807Z,40.13
2018-11-04T20:00:12.025Z,38.63
2018-11-04T20:02:42.292Z,38.43
2018-11-04T20:05:12.282Z,38.90
2018-11-04T20:07:41.599Z,39.47
2018-11-04T20:10:12.937Z,38.30
2018-11-04T20:12:47.337Z,37.63
2018-11-04T20:15:16.762Z,40.23
2018-11-04T20:17:47.099Z,37.83
2018-11-04T20:20:18.318Z,40.10
2018-11-04T20:22:47.747Z,37.60
2018-11-04T20:25:21.984Z,37.13
2018-11-04T20:27:51.646Z,36.00
2018-11-04T20:30:20.996Z,38.80
2018-11-04T20:32:55.159Z,41.20
2018-11-04T20:35:24.410Z,37.67
2018-11-04T20:37:53.707Z,37.00
2018-11-04T20:40:28.117Z,38.00
2018-11-04T20:42:57.503Z,37.73
2018-11-04T20:45:27.330Z,40.20
2018-11-04T20:48:02.143Z,41.47
2018-11-04T20:50:36.672Z,39.47
2018-11-04T20:53:06.174Z,42.23
2018-11-04T20:55:40.647Z,39.40
2018-11-04T20:58:10.391Z,40.37
2018-11-04T21:00:39.776Z,41.57
2018-11-04T21:03:09.113Z,39.90
2018-11-04T21:05:38.417Z,41.47
2018-11-04T21:08:08.125Z,40.27
2018-11-04T21:10:37.429Z,40.67
2018-11-04T21:13:06.909Z,41.93
2018-11-04T21:15:36.247Z,39.47
2018-11-04T21:18:08.739Z,39.03
2018-11-04T21:20:38.395Z,42.27
2018-11-04T21:23:10.738Z,40.93
2018-11-04T21:25:45.142Z,39.17
2018-11-04T21:28:14.604Z,39.77
2018-11-04T21:31:19.091Z,39.63
2018-11-04T21:33:48.415Z,40.13
2018-11-04T21:36:21.987Z,38.80
2018-11-04T21:39:28.385Z,38.83
2018-11-04T21:45:58.582Z,42.00
2018-11-04T22:03:22.303Z,42.17
2018-11-04T22:30:34.287Z,44.17
2018-11-04T22:33:04.145Z,46.33
2018-11-04T22:35:41.679Z,49.43
2018-11-04T22:38:15.068Z,44.40
2018-11-04T22:40:48.330Z,45.33
2018-11-04T22:43:18.038Z,46.27
2018-11-04T22:45:52.033Z,46.77
2018-11-04T22:48:21.546Z,46.10
2018-11-04T22:50:53.553Z,47.07
2018-11-04T22:53:23.200Z,48.40
2018-11-04T22:55:53.040Z,48.93
2018-11-04T22:58:22.783Z,50.50
2018-11-04T23:00:57.268Z,49.47
2018-11-04T23:03:28.048Z,49.03
2018-11-04T23:05:59.108Z,49.97
2018-11-04T23:08:28.671Z,53.90
2018-11-04T23:10:58.377Z,53.10
2018-11-04T23:13:28.125Z,52.63
2018-11-04T23:15:57.919Z,55.77
2018-11-04T23:18:27.347Z,56.77
2018-11-04T23:20:56.760Z,54.37
2018-11-04T23:23:26.400Z,52.63
2018-11-04T23:25:55.863Z,55.63
2018-11-04T23:28:25.390Z,54.57
2018-11-04T23:30:54.830Z,55.60
2018-11-04T23:33:24.606Z,57.40
2018-11-04T23:35:54.102Z,56.43
2018-11-04T23:38:23.474Z,57.37
2018-11-04T23:40:53.017Z,58.13
2018-11-04T23:43:29.056Z,57.80
2018-11-04T23:45:58.675Z,55.07
2018-11-04T23:48:28.319Z,57.03
2018-11-04T23:50:58.321Z,55.40
2018-11-04T23:53:27.919Z,55.13
2018-11-04T23:56:00.217Z,55.47
2018-11-04T23:58:31.738Z,56.20
